sensor_id;sensor_type;location;lat;lon;timestamp;temperature;humidity
16076;DHT22;8142;48.242;11.644;2024-03-02T00:00:22;7.50;99.90
16076;DHT22;8142;48.242;11.644;2024-03-02T00:02:50;7.50;99.90
16076;DHT22;8142;48.242;11.644;2024-03-02T00:05:21;7.50;99.90
16076;DHT22;8142;48.242;11.644;2024-03-02T00:07:57;7.50;99.90
16076;DHT22;8142;48.242;11.644;2024-03-02T00:10:27;7.50;99.90
16076;DHT22;8142;48.242;11.644;2024-03-02T00:12:57;7.50;99.90
16076;DHT22;8142;48.242;11.644;2024-03-02T00:15:46;7.50;99.90
16076;DHT22;8142;48.242;11.644;2024-03-02T00:18:20;7.50;99.90
16076;DHT22;8142;48.242;11.644;2024-03-02T00:20:47;7.60;99.90
16076;DHT22;8142;48.242;11.644;2024-03-02T00:23:16;7.50;99.90
16076;DHT22;8142;48.242;11.644;2024-03-02T00:25:53;7.50;99.90
16076;DHT22;8142;48.242;11.644;2024-03-02T00:28:27;7.50;99.90
16076;DHT22;8142;48.242;11.644;2024-03-02T00:30:56;7.50;99.90
16076;DHT22;8142;48.242;11.644;2024-03-02T00:33:25;7.50;99.90
16076;DHT22;8142;48.242;11.644;2024-03-02T00:35:51;7.50;99.90
16076;DHT22;8142;48.242;11.644;2024-03-02T00:38:18;7.50;99.90
16076;DHT22;8142;48.242;11.644;2024-03-02T00:40:45;7.50;99.90
16076;DHT22;8142;48.242;11.644;2024-03-02T00:43:42;7.50;99.90
16076;DHT22;8142;48.242;11.644;2024-03-02T00:46:11;7.60;99.90
16076;DHT22;8142;48.242;11.644;2024-03-02T00:48:38;7.60;99.90
16076;DHT22;8142;48.242;11.644;2024-03-02T00:51:04;7.60;99.90
16076;DHT22;8142;48.242;11.644;2024-03-02T00:53:31;7.60;99.90
16076;DHT22;8142;48.242;11.644;2024-03-02T00:55:58;7.50;99.90
16076;DHT22;8142;48.242;11.644;2024-03-02T00:58:25;7.50;99.90
16076;DHT22;8142;48.242;11.644;2024-03-02T01:00:51;7.50;99.90
16076;DHT22;8142;48.242;11.644;2024-03-02T01:03:17;7.50;99.90
16076;DHT22;8142;48.242;11.644;2024-03-02T01:05:44;7.50;99.90
16076;DHT22;8142;48.242;11.644;2024-03-02T01:08:11;7.50;99.90
16076;DHT22;8142;48.242;11.644;2024-03-02T01:10:37;7.50;99.90
16076;DHT22;8142;48.242;11.644;2024-03-02T01:13:03;7.50;99.90
16076;DHT22;8142;48.242;11.644;2024-03-02T01:15:29;7.40;99.90
16076;DHT22;8142;48.242;11.644;2024-03-02T01:17:55;7.40;99.90
16076;DHT22;8142;48.242;11.644;2024-03-02T01:20:21;7.40;99.90
16076;DHT22;8142;48.242;11.644;2024-03-02T01:22:48;7.40;99.90
16076;DHT22;8142;48.242;11.644;2024-03-02T01:25:15;7.30;99.90
16076;DHT22;8142;48.242;11.644;2024-03-02T01:27:41;7.40;99.90
16076;DHT22;8142;48.242;11.644;2024-03-02T01:30:07;7.40;99.90
16076;DHT22;8142;48.242;11.644;2024-03-02T01:32:33;7.40;99.90
16076;DHT22;8142;48.242;11.644;2024-03-02T01:34:59;7.40;99.90
16076;DHT22;8142;48.242;11.644;2024-03-02T01:37:25;7.40;99.90
16076;DHT22;8142;48.242;11.644;2024-03-02T01:39:51;7.40;99.90
16076;DHT22;8142;48.242;11.644;2024-03-02T01:42:17;7.40;99.90
16076;DHT22;8142;48.242;11.644;2024-03-02T01:44:42;7.40;99.90
16076;DHT22;8142;48.242;11.644;2024-03-02T01:47:08;7.40;99.90
16076;DHT22;8142;48.242;11.644;2024-03-02T01:49:34;7.40;99.90
16076;DHT22;8142;48.242;11.644;2024-03-02T01:52:00;7.30;99.90
16076;DHT22;8142;48.242;11.644;2024-03-02T01:54:26;7.30;99.90
16076;DHT22;8142;48.242;11.644;2024-03-02T01:56:52;7.30;99.90
16076;DHT22;8142;48.242;11.644;2024-03-02T01:59:18;7.30;99.90
16076;DHT22;8142;48.242;11.644;2024-03-02T02:01:44;7.20;99.90
16076;DHT22;8142;48.242;11.644;2024-03-02T02:04:10;7.30;99.90
16076;DHT22;8142;48.242;11.644;2024-03-02T02:06:36;7.30;99.90
16076;DHT22;8142;48.242;11.644;2024-03-02T02:09:02;7.30;99.90
16076;DHT22;8142;48.242;11.644;2024-03-02T02:11:28;7.40;99.90
16076;DHT22;8142;48.242;11.644;2024-03-02T02:13:54;7.40;99.90
16076;DHT22;8142;48.242;11.644;2024-03-02T02:16:21;7.40;99.90
16076;DHT22;8142;48.242;11.644;2024-03-02T02:18:47;7.40;99.90
16076;DHT22;8142;48.242;11.644;2024-03-02T02:21:13;7.30;99.90
16076;DHT22;8142;48.242;11.644;2024-03-02T02:23:39;7.40;99.90
16076;DHT22;8142;48.242;11.644;2024-03-02T02:26:04;7.30;99.90
16076;DHT22;8142;48.242;11.644;2024-03-02T02:28:30;7.20;99.90
16076;DHT22;8142;48.242;11.644;2024-03-02T02:30:56;7.30;99.90
16076;DHT22;8142;48.242;11.644;2024-03-02T02:33:22;7.30;99.90
16076;DHT22;8142;48.242;11.644;2024-03-02T02:35:48;7.20;99.90
16076;DHT22;8142;48.242;11.644;2024-03-02T02:38:14;7.30;99.90
16076;DHT22;8142;48.242;11.644;2024-03-02T02:40:40;7.30;99.90
16076;DHT22;8142;48.242;11.644;2024-03-02T02:43:06;7.40;99.90
16076;DHT22;8142;48.242;11.644;2024-03-02T02:45:32;7.30;99.90
16076;DHT22;8142;48.242;11.644;2024-03-02T02:47:58;7.30;99.90
16076;DHT22;8142;48.242;11.644;2024-03-02T02:50:25;7.30;99.90
16076;DHT22;8142;48.242;11.644;2024-03-02T02:52:50;7.30;99.90
16076;DHT22;8142;48.242;11.644;2024-03-02T02:55:16;7.30;99.90
16076;DHT22;8142;48.242;11.644;2024-03-02T02:57:42;7.30;99.90
16076;DHT22;8142;48.242;11.644;2024-03-02T03:00:14;7.30;99.90
16076;DHT22;8142;48.242;11.644;2024-03-02T03:02:41;7.30;99.90
16076;DHT22;8142;48.242;11.644;2024-03-02T03:05:09;7.30;99.90
16076;DHT22;8142;48.242;11.644;2024-03-02T03:07:35;7.30;99.90
16076;DHT22;8142;48.242;11.644;2024-03-02T03:10:03;7.30;99.90
16076;DHT22;8142;48.242;11.644;2024-03-02T03:12:36;7.30;99.90
16076;DHT22;8142;48.242;11.644;2024-03-02T03:15:03;7.30;99.90
16076;DHT22;8142;48.242;11.644;2024-03-02T03:17:30;7.30;99.90
16076;DHT22;8142;48.242;11.644;2024-03-02T03:19:56;7.30;99.90
16076;DHT22;8142;48.242;11.644;2024-03-02T03:22:22;7.30;99.90
16076;DHT22;8142;48.242;11.644;2024-03-02T03:24:48;7.30;99.90
16076;DHT22;8142;48.242;11.644;2024-03-02T03:27:14;7.30;99.90
16076;DHT22;8142;48.242;11.644;2024-03-02T03:29:40;7.30;99.90
16076;DHT22;8142;48.242;11.644;2024-03-02T03:32:06;7.30;99.90
16076;DHT22;8142;48.242;11.644;2024-03-02T03:34:33;7.30;99.90
16076;DHT22;8142;48.242;11.644;2024-03-02T03:36:59;7.30;99.90
16076;DHT22;8142;48.242;11.644;2024-03-02T03:39:25;7.30;99.90
16076;DHT22;8142;48.242;11.644;2024-03-02T03:41:51;7.30;99.90
16076;DHT22;8142;48.242;11.644;2024-03-02T03:44:17;7.30;99.90
16076;DHT22;8142;48.242;11.644;2024-03-02T03:46:44;7.20;99.90
16076;DHT22;8142;48.242;11.644;2024-03-02T03:49:10;7.20;99.90
16076;DHT22;8142;48.242;11.644;2024-03-02T03:51:35;7.20;99.90
16076;DHT22;8142;48.242;11.644;2024-03-02T03:54:01;7.20;99.90
16076;DHT22;8142;48.242;11.644;2024-03-02T03:56:27;7.20;99.90
16076;DHT22;8142;48.242;11.644;2024-03-02T03:58:53;7.20;99.90
16076;DHT22;8142;48.242;11.644;2024-03-02T04:01:19;7.20;99.90
16076;DHT22;8142;48.242;11.644;2024-03-02T04:03:45;7.20;99.90
16076;DHT22;8142;48.242;11.644;2024-03-02T04:06:11;7.20;99.90
16076;DHT22;8142;48.242;11.644;2024-03-02T04:08:37;7.30;99.90
16076;DHT22;8142;48.242;11.644;2024-03-02T04:11:03;7.30;99.90
16076;DHT22;8142;48.242;11.644;2024-03-02T04:13:30;7.20;99.90
16076;DHT22;8142;48.242;11.644;2024-03-02T04:15:56;7.20;99.90
16076;DHT22;8142;48.242;11.644;2024-03-02T04:18:22;7.20;99.90
16076;DHT22;8142;48.242;11.644;2024-03-02T04:20:47;7.20;99.90
16076;DHT22;8142;48.242;11.644;2024-03-02T04:23:13;7.20;99.90
16076;DHT22;8142;48.242;11.644;2024-03-02T04:25:39;7.20;99.90
16076;DHT22;8142;48.242;11.644;2024-03-02T04:28:05;7.20;99.90
16076;DHT22;8142;48.242;11.644;2024-03-02T04:30:31;7.30;99.90
16076;DHT22;8142;48.242;11.644;2024-03-02T04:32:57;7.30;99.90
16076;DHT22;8142;48.242;11.644;2024-03-02T04:35:23;7.30;99.90
16076;DHT22;8142;48.242;11.644;2024-03-02T04:37:49;7.20;99.90
16076;DHT22;8142;48.242;11.644;2024-03-02T04:40:15;7.30;99.90
16076;DHT22;8142;48.242;11.644;2024-03-02T04:42:41;7.30;99.90
16076;DHT22;8142;48.242;11.644;2024-03-02T04:45:07;7.30;99.90
16076;DHT22;8142;48.242;11.644;2024-03-02T04:47:33;7.30;99.90
16076;DHT22;8142;48.242;11.644;2024-03-02T04:49:59;7.30;99.90
16076;DHT22;8142;48.242;11.644;2024-03-02T04:52:25;7.30;99.90
16076;DHT22;8142;48.242;11.644;2024-03-02T04:54:51;7.20;99.90
16076;DHT22;8142;48.242;11.644;2024-03-02T04:57:35;7.20;99.90
16076;DHT22;8142;48.242;11.644;2024-03-02T05:00:02;7.20;99.90
16076;DHT22;8142;48.242;11.644;2024-03-02T05:02:32;7.20;99.90
16076;DHT22;8142;48.242;11.644;2024-03-02T05:04:58;7.20;99.90
16076;DHT22;8142;48.242;11.644;2024-03-02T05:07:24;7.30;99.90
16076;DHT22;8142;48.242;11.644;2024-03-02T05:09:50;7.30;99.90
16076;DHT22;8142;48.242;11.644;2024-03-02T05:12:16;7.20;99.90
16076;DHT22;8142;48.242;11.644;2024-03-02T05:15:01;7.20;99.90
16076;DHT22;8142;48.242;11.644;2024-03-02T05:17:28;7.20;99.90
16076;DHT22;8142;48.242;11.644;2024-03-02T05:19:54;7.20;99.90
16076;DHT22;8142;48.242;11.644;2024-03-02T05:22:20;7.20;99.90
16076;DHT22;8142;48.242;11.644;2024-03-02T05:24:46;7.20;99.90
16076;DHT22;8142;48.242;11.644;2024-03-02T05:27:12;7.20;99.90
16076;DHT22;8142;48.242;11.644;2024-03-02T05:29:38;7.20;99.90
16076;DHT22;8142;48.242;11.644;2024-03-02T05:32:04;7.20;99.90
16076;DHT22;8142;48.242;11.644;2024-03-02T05:34:29;7.20;99.90
16076;DHT22;8142;48.242;11.644;2024-03-02T05:36:56;7.20;99.90
16076;DHT22;8142;48.242;11.644;2024-03-02T05:39:23;7.20;99.90
16076;DHT22;8142;48.242;11.644;2024-03-02T05:41:49;7.20;99.90
16076;DHT22;8142;48.242;11.644;2024-03-02T05:44:15;7.20;99.90
16076;DHT22;8142;48.242;11.644;2024-03-02T05:46:41;7.20;99.90
16076;DHT22;8142;48.242;11.644;2024-03-02T05:49:07;7.20;99.90
16076;DHT22;8142;48.242;11.644;2024-03-02T05:51:33;7.30;99.90
16076;DHT22;8142;48.242;11.644;2024-03-02T05:53:59;7.20;99.90
16076;DHT22;8142;48.242;11.644;2024-03-02T05:56:25;7.20;99.90
16076;DHT22;8142;48.242;11.644;2024-03-02T05:58:51;7.20;99.90
16076;DHT22;8142;48.242;11.644;2024-03-02T06:01:47;7.20;99.90
16076;DHT22;8142;48.242;11.644;2024-03-02T06:04:14;7.10;99.90
16076;DHT22;8142;48.242;11.644;2024-03-02T06:06:40;7.10;99.90
16076;DHT22;8142;48.242;11.644;2024-03-02T06:09:07;7.00;99.90
16076;DHT22;8142;48.242;11.644;2024-03-02T06:11:39;6.80;99.90
16076;DHT22;8142;48.242;11.644;2024-03-02T06:14:07;6.60;99.90
16076;DHT22;8142;48.242;11.644;2024-03-02T06:16:33;6.50;99.90
16076;DHT22;8142;48.242;11.644;2024-03-02T06:18:59;6.40;99.90
16076;DHT22;8142;48.242;11.644;2024-03-02T06:21:26;6.30;99.90
16076;DHT22;8142;48.242;11.644;2024-03-02T06:23:52;6.30;99.90
16076;DHT22;8142;48.242;11.644;2024-03-02T06:26:19;6.10;99.90
16076;DHT22;8142;48.242;11.644;2024-03-02T06:28:45;6.00;99.90
16076;DHT22;8142;48.242;11.644;2024-03-02T06:31:11;6.00;99.90
16076;DHT22;8142;48.242;11.644;2024-03-02T06:33:37;5.90;99.90
16076;DHT22;8142;48.242;11.644;2024-03-02T06:36:04;5.90;99.90
16076;DHT22;8142;48.242;11.644;2024-03-02T06:38:30;5.80;99.90
16076;DHT22;8142;48.242;11.644;2024-03-02T06:40:58;5.70;99.90
16076;DHT22;8142;48.242;11.644;2024-03-02T06:43:24;5.70;99.90
16076;DHT22;8142;48.242;11.644;2024-03-02T06:45:50;5.60;99.90
16076;DHT22;8142;48.242;11.644;2024-03-02T06:48:20;5.60;99.90
16076;DHT22;8142;48.242;11.644;2024-03-02T06:50:46;5.60;99.90
16076;DHT22;8142;48.242;11.644;2024-03-02T06:53:13;5.50;99.90
16076;DHT22;8142;48.242;11.644;2024-03-02T06:55:39;5.50;99.90
16076;DHT22;8142;48.242;11.644;2024-03-02T06:58:05;5.40;99.90
16076;DHT22;8142;48.242;11.644;2024-03-02T07:00:31;5.40;99.90
16076;DHT22;8142;48.242;11.644;2024-03-02T07:02:57;5.40;99.90
16076;DHT22;8142;48.242;11.644;2024-03-02T07:05:24;5.40;99.90
16076;DHT22;8142;48.242;11.644;2024-03-02T07:07:50;5.40;99.90
16076;DHT22;8142;48.242;11.644;2024-03-02T07:10:15;5.50;99.90
16076;DHT22;8142;48.242;11.644;2024-03-02T07:12:41;5.60;99.90
16076;DHT22;8142;48.242;11.644;2024-03-02T07:15:08;5.60;99.90
16076;DHT22;8142;48.242;11.644;2024-03-02T07:17:44;5.70;99.90
16076;DHT22;8142;48.242;11.644;2024-03-02T07:20:11;5.70;99.90
16076;DHT22;8142;48.242;11.644;2024-03-02T07:22:44;5.80;99.90
16076;DHT22;8142;48.242;11.644;2024-03-02T07:25:10;5.80;99.90
16076;DHT22;8142;48.242;11.644;2024-03-02T07:27:36;5.80;99.90
16076;DHT22;8142;48.242;11.644;2024-03-02T07:30:03;5.80;99.90
16076;DHT22;8142;48.242;11.644;2024-03-02T07:32:29;5.90;99.90
16076;DHT22;8142;48.242;11.644;2024-03-02T07:34:55;5.90;99.90
16076;DHT22;8142;48.242;11.644;2024-03-02T07:37:22;6.00;99.90
16076;DHT22;8142;48.242;11.644;2024-03-02T07:39:49;6.00;99.90
16076;DHT22;8142;48.242;11.644;2024-03-02T07:42:17;6.00;99.90
16076;DHT22;8142;48.242;11.644;2024-03-02T07:44:44;6.00;99.90
16076;DHT22;8142;48.242;11.644;2024-03-02T07:47:11;6.00;99.90
16076;DHT22;8142;48.242;11.644;2024-03-02T07:49:38;6.10;99.90
16076;DHT22;8142;48.242;11.644;2024-03-02T07:52:04;6.20;99.90
16076;DHT22;8142;48.242;11.644;2024-03-02T07:54:30;6.30;99.90
16076;DHT22;8142;48.242;11.644;2024-03-02T07:56:55;6.50;99.90
16076;DHT22;8142;48.242;11.644;2024-03-02T07:59:21;6.70;99.90
16076;DHT22;8142;48.242;11.644;2024-03-02T08:01:49;6.90;99.90
16076;DHT22;8142;48.242;11.644;2024-03-02T08:04:16;7.10;99.90
16076;DHT22;8142;48.242;11.644;2024-03-02T08:06:45;7.20;99.90
16076;DHT22;8142;48.242;11.644;2024-03-02T08:09:12;7.50;99.90
16076;DHT22;8142;48.242;11.644;2024-03-02T08:11:38;7.70;99.90
16076;DHT22;8142;48.242;11.644;2024-03-02T08:14:04;7.90;99.90
16076;DHT22;8142;48.242;11.644;2024-03-02T08:16:30;8.10;99.90
16076;DHT22;8142;48.242;11.644;2024-03-02T08:18:56;8.30;99.90
16076;DHT22;8142;48.242;11.644;2024-03-02T08:21:24;8.40;99.90
16076;DHT22;8142;48.242;11.644;2024-03-02T08:23:50;8.60;99.90
16076;DHT22;8142;48.242;11.644;2024-03-02T08:26:16;8.60;99.90
16076;DHT22;8142;48.242;11.644;2024-03-02T08:28:43;8.70;99.90
16076;DHT22;8142;48.242;11.644;2024-03-02T08:31:12;8.70;99.90
16076;DHT22;8142;48.242;11.644;2024-03-02T08:33:39;8.80;99.90
16076;DHT22;8142;48.242;11.644;2024-03-02T08:36:06;8.70;99.90
16076;DHT22;8142;48.242;11.644;2024-03-02T08:38:32;8.60;99.90
16076;DHT22;8142;48.242;11.644;2024-03-02T08:40:58;8.60;99.90
16076;DHT22;8142;48.242;11.644;2024-03-02T08:43:24;8.60;99.90
16076;DHT22;8142;48.242;11.644;2024-03-02T08:45:50;8.60;99.90
16076;DHT22;8142;48.242;11.644;2024-03-02T08:48:16;8.50;99.90
16076;DHT22;8142;48.242;11.644;2024-03-02T08:50:43;8.50;99.90
16076;DHT22;8142;48.242;11.644;2024-03-02T08:53:10;8.40;99.90
16076;DHT22;8142;48.242;11.644;2024-03-02T08:55:38;8.40;99.90
16076;DHT22;8142;48.242;11.644;2024-03-02T08:58:07;8.40;99.90
16076;DHT22;8142;48.242;11.644;2024-03-02T09:00:33;8.40;99.90
16076;DHT22;8142;48.242;11.644;2024-03-02T09:02:59;8.40;99.90
16076;DHT22;8142;48.242;11.644;2024-03-02T09:05:25;8.30;99.90
16076;DHT22;8142;48.242;11.644;2024-03-02T09:07:51;8.30;99.90
16076;DHT22;8142;48.242;11.644;2024-03-02T09:10:17;8.30;99.90
16076;DHT22;8142;48.242;11.644;2024-03-02T09:12:43;8.30;99.90
16076;DHT22;8142;48.242;11.644;2024-03-02T09:15:09;8.30;99.90
16076;DHT22;8142;48.242;11.644;2024-03-02T09:17:39;8.30;99.90
16076;DHT22;8142;48.242;11.644;2024-03-02T09:20:07;8.30;99.90
16076;DHT22;8142;48.242;11.644;2024-03-02T09:22:36;8.40;99.90
16076;DHT22;8142;48.242;11.644;2024-03-02T09:25:02;8.40;99.90
16076;DHT22;8142;48.242;11.644;2024-03-02T09:27:28;8.30;99.90
16076;DHT22;8142;48.242;11.644;2024-03-02T09:29:54;8.40;99.90
16076;DHT22;8142;48.242;11.644;2024-03-02T09:32:20;8.40;99.90
16076;DHT22;8142;48.242;11.644;2024-03-02T09:34:46;8.40;99.90
16076;DHT22;8142;48.242;11.644;2024-03-02T09:37:13;8.40;99.90
16076;DHT22;8142;48.242;11.644;2024-03-02T09:39:40;8.30;99.90
16076;DHT22;8142;48.242;11.644;2024-03-02T09:42:11;8.40;99.90
16076;DHT22;8142;48.242;11.644;2024-03-02T09:44:41;8.40;99.90
16076;DHT22;8142;48.242;11.644;2024-03-02T09:47:08;8.40;99.90
16076;DHT22;8142;48.242;11.644;2024-03-02T09:49:34;8.40;99.90
16076;DHT22;8142;48.242;11.644;2024-03-02T09:52:01;8.50;99.90
16076;DHT22;8142;48.242;11.644;2024-03-02T09:54:28;8.50;99.90
16076;DHT22;8142;48.242;11.644;2024-03-02T09:56:54;8.60;99.90
16076;DHT22;8142;48.242;11.644;2024-03-02T09:59:20;8.60;99.90
16076;DHT22;8142;48.242;11.644;2024-03-02T10:02:00;8.60;99.90
16076;DHT22;8142;48.242;11.644;2024-03-02T10:04:27;8.60;99.90
16076;DHT22;8142;48.242;11.644;2024-03-02T10:07:14;8.60;99.90
16076;DHT22;8142;48.242;11.644;2024-03-02T10:09:43;8.70;99.90
16076;DHT22;8142;48.242;11.644;2024-03-02T10:12:10;8.70;99.90
16076;DHT22;8142;48.242;11.644;2024-03-02T10:14:37;8.70;99.90
16076;DHT22;8142;48.242;11.644;2024-03-02T10:17:06;8.80;99.90
16076;DHT22;8142;48.242;11.644;2024-03-02T10:19:32;8.80;99.90
16076;DHT22;8142;48.242;11.644;2024-03-02T10:21:59;8.90;99.90
16076;DHT22;8142;48.242;11.644;2024-03-02T10:24:25;8.90;99.90
16076;DHT22;8142;48.242;11.644;2024-03-02T10:26:52;9.00;99.90
16076;DHT22;8142;48.242;11.644;2024-03-02T10:29:19;9.00;99.90
16076;DHT22;8142;48.242;11.644;2024-03-02T10:31:47;9.10;99.90
16076;DHT22;8142;48.242;11.644;2024-03-02T10:34:13;9.10;99.90
16076;DHT22;8142;48.242;11.644;2024-03-02T10:36:42;9.20;99.90
16076;DHT22;8142;48.242;11.644;2024-03-02T10:39:09;9.20;99.90
16076;DHT22;8142;48.242;11.644;2024-03-02T10:41:36;9.30;99.90
16076;DHT22;8142;48.242;11.644;2024-03-02T10:44:04;9.30;99.90
16076;DHT22;8142;48.242;11.644;2024-03-02T10:46:31;9.30;99.90
16076;DHT22;8142;48.242;11.644;2024-03-02T10:48:59;9.30;99.90
16076;DHT22;8142;48.242;11.644;2024-03-02T10:51:27;9.40;99.90
16076;DHT22;8142;48.242;11.644;2024-03-02T10:53:55;9.40;99.90
16076;DHT22;8142;48.242;11.644;2024-03-02T10:56:35;9.40;99.90
16076;DHT22;8142;48.242;11.644;2024-03-02T11:01:56;9.40;99.90
16076;DHT22;8142;48.242;11.644;2024-03-02T11:04:24;9.40;99.90
16076;DHT22;8142;48.242;11.644;2024-03-02T11:06:51;9.30;99.90
16076;DHT22;8142;48.242;11.644;2024-03-02T11:09:22;9.30;99.90
16076;DHT22;8142;48.242;11.644;2024-03-02T11:11:56;9.30;99.90
16076;DHT22;8142;48.242;11.644;2024-03-02T11:14:30;9.30;99.90
16076;DHT22;8142;48.242;11.644;2024-03-02T11:17:01;9.20;99.90
16076;DHT22;8142;48.242;11.644;2024-03-02T11:19:30;9.20;99.90
16076;DHT22;8142;48.242;11.644;2024-03-02T11:21:56;9.10;99.90
16076;DHT22;8142;48.242;11.644;2024-03-02T11:26:53;9.10;99.90
16076;DHT22;8142;48.242;11.644;2024-03-02T11:32:02;9.10;99.90
16076;DHT22;8142;48.242;11.644;2024-03-02T11:34:30;9.20;99.90
16076;DHT22;8142;48.242;11.644;2024-03-02T11:36:57;9.20;99.90
16076;DHT22;8142;48.242;11.644;2024-03-02T11:39:23;9.20;99.90
16076;DHT22;8142;48.242;11.644;2024-03-02T11:41:49;9.30;99.90
16076;DHT22;8142;48.242;11.644;2024-03-02T11:44:15;9.30;99.90
16076;DHT22;8142;48.242;11.644;2024-03-02T11:46:42;9.30;99.90
16076;DHT22;8142;48.242;11.644;2024-03-02T11:49:14;9.40;99.90
16076;DHT22;8142;48.242;11.644;2024-03-02T11:51:53;9.40;99.90
16076;DHT22;8142;48.242;11.644;2024-03-02T11:54:27;9.50;99.90
16076;DHT22;8142;48.242;11.644;2024-03-02T11:56:55;9.50;99.90
16076;DHT22;8142;48.242;11.644;2024-03-02T11:59:22;9.60;99.90
16076;DHT22;8142;48.242;11.644;2024-03-02T12:01:49;9.60;99.90
16076;DHT22;8142;48.242;11.644;2024-03-02T12:04:16;9.60;99.90
16076;DHT22;8142;48.242;11.644;2024-03-02T12:06:42;9.60;99.90
16076;DHT22;8142;48.242;11.644;2024-03-02T12:09:10;9.60;99.90
16076;DHT22;8142;48.242;11.644;2024-03-02T12:11:40;9.70;99.90
16076;DHT22;8142;48.242;11.644;2024-03-02T12:14:11;9.80;99.90
16076;DHT22;8142;48.242;11.644;2024-03-02T12:16:38;9.70;99.90
16076;DHT22;8142;48.242;11.644;2024-03-02T12:19:06;9.70;99.90
16076;DHT22;8142;48.242;11.644;2024-03-02T12:21:32;9.80;99.90
16076;DHT22;8142;48.242;11.644;2024-03-02T12:23:58;9.80;99.90
16076;DHT22;8142;48.242;11.644;2024-03-02T12:26:24;9.80;99.90
16076;DHT22;8142;48.242;11.644;2024-03-02T12:28:50;9.80;99.90
16076;DHT22;8142;48.242;11.644;2024-03-02T12:31:17;9.90;99.90
16076;DHT22;8142;48.242;11.644;2024-03-02T12:33:43;9.90;99.90
16076;DHT22;8142;48.242;11.644;2024-03-02T12:36:09;9.90;99.90
16076;DHT22;8142;48.242;11.644;2024-03-02T12:38:37;10.00;99.90
16076;DHT22;8142;48.242;11.644;2024-03-02T12:41:08;10.00;99.90
16076;DHT22;8142;48.242;11.644;2024-03-02T12:43:34;10.00;99.90
16076;DHT22;8142;48.242;11.644;2024-03-02T12:46:00;10.00;99.90
16076;DHT22;8142;48.242;11.644;2024-03-02T12:48:26;10.10;99.90
16076;DHT22;8142;48.242;11.644;2024-03-02T12:50:52;10.10;99.90
16076;DHT22;8142;48.242;11.644;2024-03-02T12:53:18;10.10;99.90
16076;DHT22;8142;48.242;11.644;2024-03-02T12:55:45;10.20;99.90
16076;DHT22;8142;48.242;11.644;2024-03-02T12:58:21;10.20;99.90
16076;DHT22;8142;48.242;11.644;2024-03-02T13:00:47;10.20;99.90
16076;DHT22;8142;48.242;11.644;2024-03-02T13:03:13;10.20;99.90
16076;DHT22;8142;48.242;11.644;2024-03-02T13:05:40;10.20;99.90
16076;DHT22;8142;48.242;11.644;2024-03-02T13:08:09;10.20;99.90
16076;DHT22;8142;48.242;11.644;2024-03-02T13:10:35;10.20;99.90
16076;DHT22;8142;48.242;11.644;2024-03-02T13:13:01;10.20;99.90
16076;DHT22;8142;48.242;11.644;2024-03-02T13:15:27;10.10;99.90
16076;DHT22;8142;48.242;11.644;2024-03-02T13:17:53;10.10;99.90
16076;DHT22;8142;48.242;11.644;2024-03-02T13:20:19;10.10;99.90
16076;DHT22;8142;48.242;11.644;2024-03-02T13:22:45;10.10;99.90
16076;DHT22;8142;48.242;11.644;2024-03-02T13:25:12;10.20;99.90
16076;DHT22;8142;48.242;11.644;2024-03-02T13:27:38;10.20;99.90
16076;DHT22;8142;48.242;11.644;2024-03-02T13:30:04;10.20;99.90
16076;DHT22;8142;48.242;11.644;2024-03-02T13:32:34;10.20;99.90
16076;DHT22;8142;48.242;11.644;2024-03-02T13:35:00;10.20;99.90
16076;DHT22;8142;48.242;11.644;2024-03-02T13:37:26;10.20;99.90
16076;DHT22;8142;48.242;11.644;2024-03-02T13:39:52;10.20;99.90
16076;DHT22;8142;48.242;11.644;2024-03-02T13:42:18;10.20;99.90
16076;DHT22;8142;48.242;11.644;2024-03-02T13:44:44;10.30;99.90
16076;DHT22;8142;48.242;11.644;2024-03-02T13:47:15;10.30;99.90
16076;DHT22;8142;48.242;11.644;2024-03-02T13:49:41;10.30;99.90
16076;DHT22;8142;48.242;11.644;2024-03-02T13:52:11;10.30;99.90
16076;DHT22;8142;48.242;11.644;2024-03-02T13:54:39;10.30;99.90
16076;DHT22;8142;48.242;11.644;2024-03-02T13:57:06;10.40;99.90
16076;DHT22;8142;48.242;11.644;2024-03-02T13:59:34;10.40;99.90
16076;DHT22;8142;48.242;11.644;2024-03-02T14:02:01;10.40;99.90
16076;DHT22;8142;48.242;11.644;2024-03-02T14:04:33;10.40;99.90
16076;DHT22;8142;48.242;11.644;2024-03-02T14:06:59;10.40;99.90
16076;DHT22;8142;48.242;11.644;2024-03-02T14:09:25;10.40;99.90
16076;DHT22;8142;48.242;11.644;2024-03-02T14:11:51;10.50;99.90
16076;DHT22;8142;48.242;11.644;2024-03-02T14:14:17;10.60;99.90
16076;DHT22;8142;48.242;11.644;2024-03-02T14:16:43;10.50;99.90
16076;DHT22;8142;48.242;11.644;2024-03-02T14:19:11;10.50;99.90
16076;DHT22;8142;48.242;11.644;2024-03-02T14:21:40;10.50;99.90
16076;DHT22;8142;48.242;11.644;2024-03-02T14:24:06;10.60;99.90
16076;DHT22;8142;48.242;11.644;2024-03-02T14:26:33;10.50;99.90
16076;DHT22;8142;48.242;11.644;2024-03-02T14:28:59;10.60;99.90
16076;DHT22;8142;48.242;11.644;2024-03-02T14:31:28;10.60;99.90
16076;DHT22;8142;48.242;11.644;2024-03-02T14:33:54;10.70;99.90
16076;DHT22;8142;48.242;11.644;2024-03-02T14:36:20;10.80;99.90
16076;DHT22;8142;48.242;11.644;2024-03-02T14:38:46;10.70;99.90
16076;DHT22;8142;48.242;11.644;2024-03-02T14:41:13;10.70;99.90
16076;DHT22;8142;48.242;11.644;2024-03-02T14:43:39;10.70;99.90
16076;DHT22;8142;48.242;11.644;2024-03-02T14:46:06;10.70;99.90
16076;DHT22;8142;48.242;11.644;2024-03-02T14:48:36;10.80;99.90
16076;DHT22;8142;48.242;11.644;2024-03-02T14:51:02;10.70;99.90
16076;DHT22;8142;48.242;11.644;2024-03-02T14:53:28;10.70;99.90
16076;DHT22;8142;48.242;11.644;2024-03-02T14:55:54;10.70;99.90
16076;DHT22;8142;48.242;11.644;2024-03-02T14:58:21;10.60;99.90
16076;DHT22;8142;48.242;11.644;2024-03-02T15:00:47;10.60;99.90
16076;DHT22;8142;48.242;11.644;2024-03-02T15:03:13;10.60;99.90
16076;DHT22;8142;48.242;11.644;2024-03-02T15:05:39;10.60;99.90
16076;DHT22;8142;48.242;11.644;2024-03-02T15:08:06;10.60;99.90
16076;DHT22;8142;48.242;11.644;2024-03-02T15:10:33;10.50;99.90
16076;DHT22;8142;48.242;11.644;2024-03-02T15:12:59;10.50;99.90
16076;DHT22;8142;48.242;11.644;2024-03-02T15:15:25;10.50;99.90
16076;DHT22;8142;48.242;11.644;2024-03-02T15:17:51;10.40;99.90
16076;DHT22;8142;48.242;11.644;2024-03-02T15:20:18;10.50;99.90
16076;DHT22;8142;48.242;11.644;2024-03-02T15:22:46;10.50;99.90
16076;DHT22;8142;48.242;11.644;2024-03-02T15:25:12;10.50;99.90
16076;DHT22;8142;48.242;11.644;2024-03-02T15:27:38;10.50;99.90
16076;DHT22;8142;48.242;11.644;2024-03-02T15:30:06;10.50;99.90
16076;DHT22;8142;48.242;11.644;2024-03-02T15:32:33;10.50;99.90
16076;DHT22;8142;48.242;11.644;2024-03-02T15:35:00;10.50;99.90
16076;DHT22;8142;48.242;11.644;2024-03-02T15:37:26;10.50;99.90
16076;DHT22;8142;48.242;11.644;2024-03-02T15:39:52;10.50;99.90
16076;DHT22;8142;48.242;11.644;2024-03-02T15:42:18;10.50;99.90
16076;DHT22;8142;48.242;11.644;2024-03-02T15:44:43;10.50;99.90
16076;DHT22;8142;48.242;11.644;2024-03-02T15:47:10;10.50;99.90
16076;DHT22;8142;48.242;11.644;2024-03-02T15:49:35;10.60;99.90